<?xml version="1.0" encoding="UTF-8" standalone="no" ?>
<gpx xmlns="http://www.topografix.com/GPX/1/1" xmlns:xsi="http://www.w3.org/2001/XMLSchema-instance" xsi:schemaLocation="http://www.topografix.com/GPX/1/1 http://www.topografix.com/GPX/1/1/gpx.xsd" version="1.1" creator="VisuGPX - https://www.visugpx.com">
  <metadata>
    <name>retour canyon taurinya</name>
    <desc><![CDATA[retour du canyon de Taurinya jusqu'au camping des sauterelles
trace initiale de Plouf31 de descente-canyon.com]]></desc>
  </metadata>
  <trk>
    <name><![CDATA[Randonnée du 08/08/2022 à 16:08]]></name>
    <extensions>
      <line xmlns="http://www.topografix.com/GPX/gpx_style/0/2">
        <color>0000FF</color>
        <width>4</width>
      </line>
    </extensions>
    <trkseg>
      <trkpt lat="42.56347" lon="2.44081">
        <ele>925</ele>
        <time>2022-08-08T16:08:03+02:00</time>
      </trkpt>
      <trkpt lat="42.56342" lon="2.4405">
        <ele>911</ele>
        <time>2022-08-08T16:11:10+02:00</time>
      </trkpt>
      <trkpt lat="42.5634" lon="2.44018">
        <ele>906</ele>
        <time>2022-08-08T16:11:51+02:00</time>
      </trkpt>
      <trkpt lat="42.56332" lon="2.43987">
        <ele>903</ele>
        <time>2022-08-08T16:12:20+02:00</time>
      </trkpt>
      <trkpt lat="42.56325" lon="2.43955">
        <ele>899</ele>
        <time>2022-08-08T16:12:51+02:00</time>
      </trkpt>
      <trkpt lat="42.56324" lon="2.43922">
        <ele>889</ele>
        <time>2022-08-08T16:13:52+02:00</time>
      </trkpt>
      <trkpt lat="42.56322" lon="2.43891">
        <ele>885</ele>
        <time>2022-08-08T16:14:18+02:00</time>
      </trkpt>
      <trkpt lat="42.56319" lon="2.4386">
        <ele>878</ele>
        <time>2022-08-08T16:15:19+02:00</time>
      </trkpt>
      <trkpt lat="42.56332" lon="2.43833">
        <ele>875</ele>
        <time>2022-08-08T16:16:18+02:00</time>
      </trkpt>
      <trkpt lat="42.56354" lon="2.43827">
        <ele>868</ele>
        <time>2022-08-08T16:17:41+02:00</time>
      </trkpt>
      <trkpt lat="42.56365" lon="2.43855">
        <ele>862</ele>
        <time>2022-08-08T16:18:30+02:00</time>
      </trkpt>
      <trkpt lat="42.56386" lon="2.43863">
        <ele>857</ele>
        <time>2022-08-08T16:19:14+02:00</time>
      </trkpt>
      <trkpt lat="42.56409" lon="2.43853">
        <ele>855</ele>
        <time>2022-08-08T16:20:24+02:00</time>
      </trkpt>
      <trkpt lat="42.56404" lon="2.43823">
        <ele>858</ele>
        <time>2022-08-08T16:21:08+02:00</time>
      </trkpt>
      <trkpt lat="42.56402" lon="2.43791">
        <ele>867</ele>
        <time>2022-08-08T16:23:56+02:00</time>
      </trkpt>
      <trkpt lat="42.56427" lon="2.43789">
        <ele>862</ele>
        <time>2022-08-08T16:24:56+02:00</time>
      </trkpt>
      <trkpt lat="42.56445" lon="2.43768">
        <ele>865</ele>
        <time>2022-08-08T16:25:21+02:00</time>
      </trkpt>
      <trkpt lat="42.56455" lon="2.43739">
        <ele>873</ele>
        <time>2022-08-08T16:26:05+02:00</time>
      </trkpt>
      <trkpt lat="42.56467" lon="2.43712">
        <ele>881</ele>
        <time>2022-08-08T16:27:22+02:00</time>
      </trkpt>
      <trkpt lat="42.56478" lon="2.43685">
        <ele>886</ele>
        <time>2022-08-08T16:27:56+02:00</time>
      </trkpt>
      <trkpt lat="42.56498" lon="2.43666">
        <ele>899</ele>
        <time>2022-08-08T16:29:00+02:00</time>
      </trkpt>
      <trkpt lat="42.56515" lon="2.43643">
        <ele>903</ele>
        <time>2022-08-08T16:29:54+02:00</time>
      </trkpt>
      <trkpt lat="42.56525" lon="2.43614">
        <ele>901</ele>
        <time>2022-08-08T16:30:20+02:00</time>
      </trkpt>
      <trkpt lat="42.56539" lon="2.43588">
        <ele>900</ele>
        <time>2022-08-08T16:31:26+02:00</time>
      </trkpt>
      <trkpt lat="42.56564" lon="2.43588">
        <ele>900</ele>
        <time>2022-08-08T16:32:00+02:00</time>
      </trkpt>
      <trkpt lat="42.56581" lon="2.43565">
        <ele>898</ele>
        <time>2022-08-08T16:32:49+02:00</time>
      </trkpt>
      <trkpt lat="42.56596" lon="2.43539">
        <ele>891</ele>
        <time>2022-08-08T16:33:22+02:00</time>
      </trkpt>
      <trkpt lat="42.56605" lon="2.4351">
        <ele>883</ele>
        <time>2022-08-08T16:33:55+02:00</time>
      </trkpt>
      <trkpt lat="42.56625" lon="2.43496">
        <ele>877</ele>
        <time>2022-08-08T16:34:37+02:00</time>
      </trkpt>
      <trkpt lat="42.56626" lon="2.43492">
        <ele>877</ele>
        <time>2022-08-08T16:42:13+02:00</time>
      </trkpt>
      <trkpt lat="42.56639" lon="2.43465">
        <ele>872</ele>
        <time>2022-08-08T16:42:38+02:00</time>
      </trkpt>
      <trkpt lat="42.5666" lon="2.43454">
        <ele>865</ele>
        <time>2022-08-08T16:43:20+02:00</time>
      </trkpt>
      <trkpt lat="42.56685" lon="2.43462">
        <ele>863</ele>
        <time>2022-08-08T16:43:44+02:00</time>
      </trkpt>
      <trkpt lat="42.5671" lon="2.43463">
        <ele>864</ele>
        <time>2022-08-08T16:44:05+02:00</time>
      </trkpt>
      <trkpt lat="42.56732" lon="2.43448">
        <ele>859</ele>
        <time>2022-08-08T16:44:25+02:00</time>
      </trkpt>
      <trkpt lat="42.56749" lon="2.43428">
        <ele>855</ele>
        <time>2022-08-08T16:45:00+02:00</time>
      </trkpt>
      <trkpt lat="42.56754" lon="2.43396">
        <ele>850</ele>
        <time>2022-08-08T16:45:26+02:00</time>
      </trkpt>
      <trkpt lat="42.56764" lon="2.43367">
        <ele>841</ele>
        <time>2022-08-08T16:45:57+02:00</time>
      </trkpt>
      <trkpt lat="42.56764" lon="2.43335">
        <ele>838</ele>
        <time>2022-08-08T16:46:19+02:00</time>
      </trkpt>
      <trkpt lat="42.5676" lon="2.43304">
        <ele>838</ele>
        <time>2022-08-08T16:46:45+02:00</time>
      </trkpt>
      <trkpt lat="42.56762" lon="2.43273">
        <ele>837</ele>
        <time>2022-08-08T16:47:04+02:00</time>
      </trkpt>
      <trkpt lat="42.56762" lon="2.43242">
        <ele>837</ele>
        <time>2022-08-08T16:47:23+02:00</time>
      </trkpt>
      <trkpt lat="42.56754" lon="2.43211">
        <ele>834</ele>
        <time>2022-08-08T16:47:44+02:00</time>
      </trkpt>
      <trkpt lat="42.56764" lon="2.43184">
        <ele>830</ele>
        <time>2022-08-08T16:48:17+02:00</time>
      </trkpt>
      <trkpt lat="42.56787" lon="2.4319">
        <ele>824</ele>
        <time>2022-08-08T16:48:55+02:00</time>
      </trkpt>
      <trkpt lat="42.56806" lon="2.43169">
        <ele>816</ele>
        <time>2022-08-08T16:49:32+02:00</time>
      </trkpt>
      <trkpt lat="42.56827" lon="2.43152">
        <ele>817</ele>
        <time>2022-08-08T16:50:08+02:00</time>
      </trkpt>
      <trkpt lat="42.56846" lon="2.43134">
        <ele>815</ele>
        <time>2022-08-08T16:50:32+02:00</time>
      </trkpt>
      <trkpt lat="42.56868" lon="2.43122">
        <ele>816</ele>
        <time>2022-08-08T16:51:00+02:00</time>
      </trkpt>
      <trkpt lat="42.56876" lon="2.43092">
        <ele>822</ele>
        <time>2022-08-08T16:53:34+02:00</time>
      </trkpt>
      <trkpt lat="42.56866" lon="2.43063">
        <ele>822</ele>
        <time>2022-08-08T16:53:52+02:00</time>
      </trkpt>
      <trkpt lat="42.56851" lon="2.43039">
        <ele>827</ele>
        <time>2022-08-08T16:54:12+02:00</time>
      </trkpt>
      <trkpt lat="42.56834" lon="2.43016">
        <ele>829</ele>
        <time>2022-08-08T16:54:40+02:00</time>
      </trkpt>
      <trkpt lat="42.56819" lon="2.42989">
        <ele>832</ele>
        <time>2022-08-08T16:55:04+02:00</time>
      </trkpt>
      <trkpt lat="42.56801" lon="2.42966">
        <ele>835</ele>
        <time>2022-08-08T16:55:33+02:00</time>
      </trkpt>
      <trkpt lat="42.56785" lon="2.42942">
        <ele>838</ele>
        <time>2022-08-08T16:56:05+02:00</time>
      </trkpt>
      <trkpt lat="42.56767" lon="2.4292">
        <ele>840</ele>
        <time>2022-08-08T16:56:33+02:00</time>
      </trkpt>
      <trkpt lat="42.5675" lon="2.429">
        <ele>845</ele>
        <time>2022-08-08T16:57:04+02:00</time>
      </trkpt>
      <trkpt lat="42.56737" lon="2.42873">
        <ele>848</ele>
        <time>2022-08-08T16:57:34+02:00</time>
      </trkpt>
      <trkpt lat="42.56722" lon="2.42846">
        <ele>851</ele>
        <time>2022-08-08T16:57:59+02:00</time>
      </trkpt>
      <trkpt lat="42.567" lon="2.42834">
        <ele>853</ele>
        <time>2022-08-08T16:58:28+02:00</time>
      </trkpt>
      <trkpt lat="42.56679" lon="2.42824">
        <ele>856</ele>
        <time>2022-08-08T16:59:12+02:00</time>
      </trkpt>
      <trkpt lat="42.56656" lon="2.42811">
        <ele>858</ele>
        <time>2022-08-08T16:59:43+02:00</time>
      </trkpt>
      <trkpt lat="42.56642" lon="2.42783">
        <ele>862</ele>
        <time>2022-08-08T17:00:16+02:00</time>
      </trkpt>
      <trkpt lat="42.56632" lon="2.42755">
        <ele>864</ele>
        <time>2022-08-08T17:00:48+02:00</time>
      </trkpt>
      <trkpt lat="42.56626" lon="2.42725">
        <ele>867</ele>
        <time>2022-08-08T17:01:12+02:00</time>
      </trkpt>
      <trkpt lat="42.56609" lon="2.42702">
        <ele>869</ele>
        <time>2022-08-08T17:01:42+02:00</time>
      </trkpt>
      <trkpt lat="42.56595" lon="2.42677">
        <ele>873</ele>
        <time>2022-08-08T17:02:15+02:00</time>
      </trkpt>
      <trkpt lat="42.56576" lon="2.42655">
        <ele>877</ele>
        <time>2022-08-08T17:03:47+02:00</time>
      </trkpt>
      <trkpt lat="42.56555" lon="2.42639">
        <ele>880</ele>
        <time>2022-08-08T17:04:18+02:00</time>
      </trkpt>
      <trkpt lat="42.56536" lon="2.42618">
        <ele>883</ele>
        <time>2022-08-08T17:04:51+02:00</time>
      </trkpt>
      <trkpt lat="42.56536" lon="2.42585">
        <ele>882</ele>
        <time>2022-08-08T17:05:11+02:00</time>
      </trkpt>
      <trkpt lat="42.56522" lon="2.42561">
        <ele>882</ele>
        <time>2022-08-08T17:07:52+02:00</time>
      </trkpt>
      <trkpt lat="42.56503" lon="2.42541">
        <ele>885</ele>
        <time>2022-08-08T17:08:12+02:00</time>
      </trkpt>
      <trkpt lat="42.5648" lon="2.42533">
        <ele>887</ele>
        <time>2022-08-08T17:08:38+02:00</time>
      </trkpt>
      <trkpt lat="42.56457" lon="2.42522">
        <ele>891</ele>
        <time>2022-08-08T17:09:07+02:00</time>
      </trkpt>
      <trkpt lat="42.56434" lon="2.42508">
        <ele>894</ele>
        <time>2022-08-08T17:09:41+02:00</time>
      </trkpt>
      <trkpt lat="42.56412" lon="2.42495">
        <ele>897</ele>
        <time>2022-08-08T17:10:04+02:00</time>
      </trkpt>
      <trkpt lat="42.56389" lon="2.42493">
        <ele>900</ele>
        <time>2022-08-08T17:10:31+02:00</time>
      </trkpt>
      <trkpt lat="42.56365" lon="2.42494">
        <ele>902</ele>
        <time>2022-08-08T17:10:56+02:00</time>
      </trkpt>
      <trkpt lat="42.56344" lon="2.42484">
        <ele>905</ele>
        <time>2022-08-08T17:11:27+02:00</time>
      </trkpt>
      <trkpt lat="42.56349" lon="2.42452">
        <ele>907</ele>
        <time>2022-08-08T17:12:47+02:00</time>
      </trkpt>
      <trkpt lat="42.56366" lon="2.42429">
        <ele>905</ele>
        <time>2022-08-08T17:13:03+02:00</time>
      </trkpt>
      <trkpt lat="42.56371" lon="2.42399">
        <ele>905</ele>
        <time>2022-08-08T17:13:23+02:00</time>
      </trkpt>
      <trkpt lat="42.56385" lon="2.42373">
        <ele>905</ele>
        <time>2022-08-08T17:13:43+02:00</time>
      </trkpt>
      <trkpt lat="42.56378" lon="2.42343">
        <ele>904</ele>
        <time>2022-08-08T17:14:03+02:00</time>
      </trkpt>
      <trkpt lat="42.56368" lon="2.42312">
        <ele>901</ele>
        <time>2022-08-08T17:14:24+02:00</time>
      </trkpt>
      <trkpt lat="42.56361" lon="2.42281">
        <ele>898</ele>
        <time>2022-08-08T17:14:49+02:00</time>
      </trkpt>
      <trkpt lat="42.56357" lon="2.42251">
        <ele>896</ele>
        <time>2022-08-08T17:15:07+02:00</time>
      </trkpt>
      <trkpt lat="42.56342" lon="2.42224">
        <ele>892</ele>
        <time>2022-08-08T17:15:28+02:00</time>
      </trkpt>
      <trkpt lat="42.56328" lon="2.422">
        <ele>892</ele>
        <time>2022-08-08T17:15:48+02:00</time>
      </trkpt>
      <trkpt lat="42.56328" lon="2.42168">
        <ele>889</ele>
        <time>2022-08-08T17:16:10+02:00</time>
      </trkpt>
      <trkpt lat="42.56336" lon="2.42138">
        <ele>886</ele>
        <time>2022-08-08T17:16:30+02:00</time>
      </trkpt>
      <trkpt lat="42.5634" lon="2.42104">
        <ele>887</ele>
        <time>2022-08-08T17:16:54+02:00</time>
      </trkpt>
      <trkpt lat="42.56358" lon="2.42083">
        <ele>884</ele>
        <time>2022-08-08T17:17:19+02:00</time>
      </trkpt>
      <trkpt lat="42.56381" lon="2.42076">
        <ele>882</ele>
        <time>2022-08-08T17:18:05+02:00</time>
      </trkpt>
      <trkpt lat="42.56403" lon="2.42057">
        <ele>883</ele>
        <time>2022-08-08T17:18:19+02:00</time>
      </trkpt>
      <trkpt lat="42.56428" lon="2.42062">
        <ele>884</ele>
        <time>2022-08-08T17:18:36+02:00</time>
      </trkpt>
      <trkpt lat="42.56451" lon="2.42074">
        <ele>886</ele>
        <time>2022-08-08T17:19:03+02:00</time>
      </trkpt>
      <trkpt lat="42.56474" lon="2.42084">
        <ele>885</ele>
        <time>2022-08-08T17:19:23+02:00</time>
      </trkpt>
      <trkpt lat="42.56496" lon="2.42071">
        <ele>883</ele>
        <time>2022-08-08T17:19:42+02:00</time>
      </trkpt>
      <trkpt lat="42.5651" lon="2.42046">
        <ele>885</ele>
        <time>2022-08-08T17:20:01+02:00</time>
      </trkpt>
      <trkpt lat="42.5653" lon="2.42034">
        <ele>886</ele>
        <time>2022-08-08T17:20:28+02:00</time>
      </trkpt>
      <trkpt lat="42.56554" lon="2.42031">
        <ele>888</ele>
        <time>2022-08-08T17:20:49+02:00</time>
      </trkpt>
      <trkpt lat="42.56576" lon="2.42019">
        <ele>890</ele>
        <time>2022-08-08T17:21:13+02:00</time>
      </trkpt>
      <trkpt lat="42.56599" lon="2.42005">
        <ele>893</ele>
        <time>2022-08-08T17:21:43+02:00</time>
      </trkpt>
    </trkseg>
  </trk>
</gpx>